Time;durP1;ratioP1;P1;durP2;ratioP2;P2;SDS_P1;SDS_P2;PMS_P1;PMS_P2;Temp;Humidity;BMP_temperature;BMP_pressure;BME280_temperature;BME280_humidity;BME280_pressure;Samples;Min_cycle;Max_cycle;Signal;HPM_P1;HPM_P2
2024/01/07 00:00:09;;;;;;;;;;;;;;;6.41;58.70;100506.78;4945130;28;6966;-76
2024/01/07 00:02:36;;;;;;;;;;;;;;;6.39;58.57;100513.44;4927781;28;11582;-76
2024/01/07 00:05:02;;;;;;;;;;;;;;;6.37;59.33;100507.34;4927376;28;6883;-76
2024/01/07 00:07:27;;;;;;;;;;;;;;;6.35;59.39;100504.72;4927191;28;7118;-76
2024/01/07 00:09:53;;;;;;;;;;;;;;;6.35;59.00;100511.44;4944663;28;6955;-76
2024/01/07 00:12:18;;;;;;;;;;;;;;;6.34;59.57;100513.13;4924027;28;7163;-76
2024/01/07 00:14:45;;;;;;;;;;;;;;;6.33;59.30;100513.00;4929099;28;6769;-74
2024/01/07 00:17:11;;;;;;;;;;;;;;;6.35;59.25;100519.09;4953913;28;7121;-75
2024/01/07 00:19:38;;;;;;;;;;;;;;;6.38;59.19;100526.94;4942094;28;6957;-75
2024/01/07 00:22:03;;;;;;;;;;;;;;;6.38;59.04;100527.81;4953450;28;6784;-75
2024/01/07 00:24:29;;;;;;;;;;;;;;;6.36;59.09;100524.28;4938077;28;7295;-75
2024/01/07 00:26:55;;;;;;;;;;;;;;;6.36;59.05;100531.03;4947854;28;6928;-75
2024/01/07 00:29:21;;;;;;;;;;;;;;;6.35;58.86;100527.63;4971546;28;6772;-75
2024/01/07 00:31:47;;;;;;;;;;;;;;;6.34;59.32;100528.41;4952215;28;6998;-75
2024/01/07 00:34:12;;;;;;;;;;;;;;;6.34;58.70;100527.50;4953156;28;6761;-75
2024/01/07 00:36:38;;;;;;;;;;;;;;;6.33;59.08;100530.84;4951705;29;7160;-75
2024/01/07 00:39:04;;;;;;;;;;;;;;;6.31;58.81;100532.41;4954174;28;6923;-75
2024/01/07 00:41:32;;;;;;;;;;;;;;;6.30;58.94;100533.19;4952054;28;6780;-75
2024/01/07 00:43:57;;;;;;;;;;;;;;;6.28;58.75;100535.63;4936208;28;6984;-75
2024/01/07 00:46:23;;;;;;;;;;;;;;;6.24;58.91;100531.97;4954951;28;6888;-75
2024/01/07 00:48:49;;;;;;;;;;;;;;;6.22;59.32;100537.72;4952126;29;6976;-75
2024/01/07 00:51:14;;;;;;;;;;;;;;;6.18;58.84;100533.22;4955060;28;7157;-75
2024/01/07 00:53:40;;;;;;;;;;;;;;;6.17;59.43;100539.97;4956599;28;6988;-76
2024/01/07 00:56:06;;;;;;;;;;;;;;;6.17;59.18;100536.56;4957695;28;7147;-75
2024/01/07 00:58:32;;;;;;;;;;;;;;;6.15;59.02;100541.53;4958866;28;6788;-75
2024/01/07 01:00:59;;;;;;;;;;;;;;;6.13;59.02;100540.56;4954182;28;6779;-75
2024/01/07 01:03:26;;;;;;;;;;;;;;;6.14;59.46;100539.78;4972977;28;7020;-75
2024/01/07 01:05:52;;;;;;;;;;;;;;;6.15;59.45;100543.22;4955517;28;7003;-75
2024/01/07 01:08:18;;;;;;;;;;;;;;;6.14;60.10;100542.31;4947996;28;6962;-75
2024/01/07 01:10:43;;;;;;;;;;;;;;;6.16;59.77;100539.88;4944316;28;7228;-75
2024/01/07 01:13:09;;;;;;;;;;;;;;;6.17;59.47;100552.69;4955677;28;6958;-75
2024/01/07 01:15:35;;;;;;;;;;;;;;;6.19;59.32;100556.25;4958170;28;7271;-75
2024/01/07 01:18:01;;;;;;;;;;;;;;;6.19;59.90;100552.81;4973898;28;6947;-76
2024/01/07 01:20:26;;;;;;;;;;;;;;;6.19;59.50;100553.72;4949589;28;7025;-75
2024/01/07 01:22:52;;;;;;;;;;;;;;;6.23;59.54;100560.75;4956746;28;6971;-75
2024/01/07 01:25:17;;;;;;;;;;;;;;;6.22;59.46;100566.63;4953846;28;6761;-75
2024/01/07 01:27:44;;;;;;;;;;;;;;;6.22;59.77;100566.63;4925821;28;7271;-73
2024/01/07 01:30:11;;;;;;;;;;;;;;;6.22;60.32;100576.81;4926873;28;7056;-73
2024/01/07 01:32:37;;;;;;;;;;;;;;;6.23;60.28;100567.53;4941607;28;6993;-74
2024/01/07 01:35:04;;;;;;;;;;;;;;;6.24;59.49;100575.25;4943552;28;6948;-75
2024/01/07 01:37:32;;;;;;;;;;;;;;;6.22;60.04;100573.38;4942995;28;6880;-73
2024/01/07 01:40:01;;;;;;;;;;;;;;;6.23;59.98;100580.25;4942022;28;6969;-73
2024/01/07 01:42:26;;;;;;;;;;;;;;;6.22;60.03;100579.34;4938293;28;6967;-75
2024/01/07 01:44:56;;;;;;;;;;;;;;;6.24;60.03;100582.03;4924388;28;7224;-74
2024/01/07 01:47:23;;;;;;;;;;;;;;;6.22;60.02;100584.44;4936687;28;6872;-74
2024/01/07 01:49:49;;;;;;;;;;;;;;;6.21;60.05;100590.31;4923371;28;7249;-74
2024/01/07 01:52:15;;;;;;;;;;;;;;;6.22;59.80;100591.19;4956223;28;7498;-73
2024/01/07 01:54:41;;;;;;;;;;;;;;;6.22;60.38;100596.28;4935372;28;6936;-74
2024/01/07 01:57:13;;;;;;;;;;;;;;;6.22;60.29;100594.63;4943128;28;7333;-74
2024/01/07 01:59:39;;;;;;;;;;;;;;;6.22;60.49;100594.63;4942188;28;6800;-73
2024/01/07 02:02:05;;;;;;;;;;;;;;;6.22;59.95;100592.09;4939385;28;7241;-74
2024/01/07 02:04:31;;;;;;;;;;;;;;;6.24;60.32;100595.63;4934173;28;6947;-75
2024/01/07 02:06:56;;;;;;;;;;;;;;;6.25;59.98;100602.47;4955696;28;6796;-74
2024/01/07 02:09:22;;;;;;;;;;;;;;;6.23;59.52;100603.16;4940019;28;6780;-73
2024/01/07 02:12:04;;;;;;;;;;;;;;;6.18;60.29;100602.84;4941686;28;8742;-75
2024/01/07 02:14:30;;;;;;;;;;;;;;;6.15;60.53;100606.84;4939196;28;6994;-74
2024/01/07 02:16:56;;;;;;;;;;;;;;;6.16;60.17;100611.16;4957195;28;6768;-74
2024/01/07 02:19:22;;;;;;;;;;;;;;;6.14;60.40;100611.03;4942111;28;7180;-75
2024/01/07 02:21:51;;;;;;;;;;;;;;;6.15;59.88;100614.47;4938023;28;7184;-74
2024/01/07 02:24:17;;;;;;;;;;;;;;;6.13;60.62;100605.81;4932971;28;7210;-73
2024/01/07 02:26:42;;;;;;;;;;;;;;;6.14;59.96;100612.72;4955161;28;6947;-75
2024/01/07 02:29:08;;;;;;;;;;;;;;;6.15;60.50;100610.25;4939385;28;6982;-74
2024/01/07 02:31:34;;;;;;;;;;;;;;;6.16;60.74;100614.56;4938199;28;6788;-74
2024/01/07 02:33:59;;;;;;;;;;;;;;;6.14;60.09;100613.59;4936672;28;7312;-74
2024/01/07 02:36:25;;;;;;;;;;;;;;;6.16;60.23;100613.69;4955521;28;7030;-75
2024/01/07 02:38:51;;;;;;;;;;;;;;;6.15;59.82;100617.03;4952535;28;7800;-75
2024/01/07 02:41:16;;;;;;;;;;;;;;;6.14;60.67;100616.13;4935100;28;6940;-75
2024/01/07 02:43:42;;;;;;;;;;;;;;;6.16;60.28;100616.25;4950229;28;7157;-75
2024/01/07 02:46:08;;;;;;;;;;;;;;;6.17;60.82;100623.09;4947780;28;6945;-74
2024/01/07 02:48:33;;;;;;;;;;;;;;;6.15;60.19;100620.44;4934922;28;7148;-75
2024/01/07 02:51:00;;;;;;;;;;;;;;;6.16;60.42;100619.66;4933250;28;7166;-75
2024/01/07 02:53:25;;;;;;;;;;;;;;;6.14;60.24;100626.31;4947680;28;6969;-75
2024/01/07 02:55:51;;;;;;;;;;;;;;;6.15;60.48;100617.88;4946766;28;6979;-75
2024/01/07 02:58:17;;;;;;;;;;;;;;;6.15;60.99;100624.66;4945006;28;6768;-75
2024/01/07 03:00:42;;;;;;;;;;;;;;;6.15;60.65;100629.75;4940870;28;6945;-75
2024/01/07 03:03:08;;;;;;;;;;;;;;;6.15;60.72;100627.19;4960883;28;6951;-75
2024/01/07 03:05:34;;;;;;;;;;;;;;;6.15;60.58;100625.53;4965696;28;6946;-75
2024/01/07 03:08:00;;;;;;;;;;;;;;;6.15;60.97;100620.44;4947509;28;7045;-75
2024/01/07 03:10:26;;;;;;;;;;;;;;;6.16;60.69;100629.84;4945177;28;7273;-75
2024/01/07 03:12:51;;;;;;;;;;;;;;;6.17;60.56;100628.19;4933280;28;6966;-75
2024/01/07 03:15:17;;;;;;;;;;;;;;;6.18;61.04;100628.31;4948244;28;6788;-75
2024/01/07 03:17:43;;;;;;;;;;;;;;;6.18;60.96;100635.94;4947592;28;6860;-75
2024/01/07 03:20:09;;;;;;;;;;;;;;;6.19;60.63;100642.78;4964974;28;6952;-75
2024/01/07 03:22:35;;;;;;;;;;;;;;;6.20;60.47;100636.91;4944292;28;6965;-75
2024/01/07 03:25:01;;;;;;;;;;;;;;;6.21;60.84;100636.13;4940591;28;6959;-75
2024/01/07 03:27:26;;;;;;;;;;;;;;;6.22;61.07;100650.63;4948701;28;7014;-75
2024/01/07 03:29:52;;;;;;;;;;;;;;;6.22;61.22;100643.00;4950091;28;6980;-75
2024/01/07 03:32:18;;;;;;;;;;;;;;;6.23;60.79;100641.34;4949867;28;6784;-76
2024/01/07 03:34:43;;;;;;;;;;;;;;;6.24;61.01;100654.16;4949424;28;6753;-75
2024/01/07 03:37:09;;;;;;;;;;;;;;;6.24;60.66;100636.34;4946487;28;6967;-75
2024/01/07 03:39:34;;;;;;;;;;;;;;;6.26;60.82;100639.00;4964782;28;6832;-75
2024/01/07 03:42:00;;;;;;;;;;;;;;;6.27;60.66;100642.41;4945364;28;8773;-76
2024/01/07 03:44:26;;;;;;;;;;;;;;;6.27;60.38;100644.97;4948289;28;7273;-74
2024/01/07 03:46:52;;;;;;;;;;;;;;;6.25;60.55;100647.44;4940762;28;7206;-75
2024/01/07 03:49:17;;;;;;;;;;;;;;;6.25;60.66;100653.38;4943324;28;7007;-76
2024/01/07 03:51:44;;;;;;;;;;;;;;;6.22;60.73;100645.53;4925507;28;6983;-76
2024/01/07 03:54:09;;;;;;;;;;;;;;;6.22;60.55;100653.19;4945124;28;7288;-75
2024/01/07 03:56:35;;;;;;;;;;;;;;;6.22;60.57;100658.28;4931384;28;6836;-75
2024/01/07 03:59:00;;;;;;;;;;;;;;;6.21;60.63;100659.06;4926743;28;7203;-75
2024/01/07 04:01:26;;;;;;;;;;;;;;;6.21;60.84;100656.50;4926716;28;6780;-75
2024/01/07 04:03:52;;;;;;;;;;;;;;;6.16;61.21;100662.91;4926973;28;7347;-75
2024/01/07 04:06:17;;;;;;;;;;;;;;;6.14;61.02;100669.56;4928112;28;7196;-75
2024/01/07 04:08:43;;;;;;;;;;;;;;;6.11;60.90;100671.91;4926182;28;7249;-75
2024/01/07 04:11:08;;;;;;;;;;;;;;;6.06;60.62;100671.59;4944865;28;6788;-75
2024/01/07 04:13:34;;;;;;;;;;;;;;;6.05;60.67;100672.38;4927790;29;7046;-75
2024/01/07 04:16:00;;;;;;;;;;;;;;;6.03;61.16;100670.47;4909573;28;7194;-75
2024/01/07 04:18:25;;;;;;;;;;;;;;;6.04;60.78;100667.16;4918484;28;7032;-75
2024/01/07 04:20:51;;;;;;;;;;;;;;;6.04;61.36;100670.59;4931663;28;6992;-75
2024/01/07 04:23:17;;;;;;;;;;;;;;;6.06;61.21;100674.13;4925768;28;7038;-75
2024/01/07 04:25:44;;;;;;;;;;;;;;;6.07;60.86;100675.00;4931566;28;6923;-75
2024/01/07 04:28:09;;;;;;;;;;;;;;;6.07;61.22;100673.34;4945994;28;7236;-75
2024/01/07 04:30:35;;;;;;;;;;;;;;;6.09;61.34;100681.09;4914799;28;6959;-75
2024/01/07 04:33:01;;;;;;;;;;;;;;;6.09;61.00;100678.56;4915056;28;6971;-75
2024/01/07 04:35:26;;;;;;;;;;;;;;;6.08;60.91;100682.75;4912374;28;6988;-75
2024/01/07 04:37:52;;;;;;;;;;;;;;;6.09;61.04;100686.19;4930094;28;6925;-75
2024/01/07 04:40:18;;;;;;;;;;;;;;;6.07;61.35;100688.63;4925370;28;7109;-75
2024/01/07 04:42:43;;;;;;;;;;;;;;;6.06;61.39;100686.84;4944364;28;7136;-75
2024/01/07 04:45:09;;;;;;;;;;;;;;;6.05;60.85;100687.63;4948133;28;6836;-75
2024/01/07 04:47:35;;;;;;;;;;;;;;;6.02;60.63;100692.47;4932228;29;6956;-75
2024/01/07 04:50:02;;;;;;;;;;;;;;;6.00;61.19;100691.47;4912651;28;6959;-75
2024/01/07 04:52:27;;;;;;;;;;;;;;;6.01;61.08;100703.41;4932042;29;6968;-76
2024/01/07 04:54:54;;;;;;;;;;;;;;;6.00;61.40;100710.97;4932044;29;7070;-75
2024/01/07 04:57:21;;;;;;;;;;;;;;;6.00;60.92;100698.22;4931571;28;6991;-75
2024/01/07 04:59:49;;;;;;;;;;;;;;;5.99;60.89;100694.78;4945389;29;6864;-75
2024/01/07 05:02:15;;;;;;;;;;;;;;;5.98;61.11;100706.63;4959390;28;7338;-74
2024/01/07 05:04:41;;;;;;;;;;;;;;;5.98;61.18;100708.28;4938625;29;7098;-75
2024/01/07 05:07:07;;;;;;;;;;;;;;;5.95;61.14;100703.84;4944740;28;6781;-75
2024/01/07 05:09:33;;;;;;;;;;;;;;;5.92;60.63;100703.66;4940446;29;6804;-75
2024/01/07 05:11:59;;;;;;;;;;;;;;;5.89;60.95;100711.06;4936532;28;7076;-74
2024/01/07 05:14:25;;;;;;;;;;;;;;;5.87;60.93;100709.19;4936700;29;6780;-75
2024/01/07 05:16:51;;;;;;;;;;;;;;;5.83;60.94;100710.63;4961827;28;6852;-75
2024/01/07 05:19:16;;;;;;;;;;;;;;;5.83;60.91;100714.03;4943296;28;7344;-75
2024/01/07 05:21:42;;;;;;;;;;;;;;;5.85;61.28;100721.78;4943207;29;6778;-75
2024/01/07 05:24:07;;;;;;;;;;;;;;;5.86;60.73;100723.56;4959681;28;6962;-75
2024/01/07 05:26:41;;;;;;;;;;;;;;;5.87;61.08;100729.53;4943031;29;7169;-75
2024/01/07 05:29:07;;;;;;;;;;;;;;;5.86;61.44;100731.19;4937238;28;6975;-74
2024/01/07 05:31:33;;;;;;;;;;;;;;;5.87;61.37;100732.94;4941077;28;6760;-75
2024/01/07 05:33:58;;;;;;;;;;;;;;;5.87;61.22;100744.81;4943451;29;8307;-75
2024/01/07 05:36:24;;;;;;;;;;;;;;;5.84;61.09;100736.19;4927102;28;7893;-74
2024/01/07 05:38:50;;;;;;;;;;;;;;;5.82;60.91;100752.97;4946162;28;6776;-74
2024/01/07 05:41:15;;;;;;;;;;;;;;;5.81;61.19;100741.03;4941510;28;6780;-74
2024/01/07 05:43:41;;;;;;;;;;;;;;;5.81;61.42;100747.78;4947724;28;6780;-75
2024/01/07 05:46:06;;;;;;;;;;;;;;;5.81;61.24;100745.25;4967704;28;6798;-74
2024/01/07 05:48:46;;;;;;;;;;;;;;;5.81;60.91;100750.34;4947116;28;6764;-75
2024/01/07 05:51:14;;;;;;;;;;;;;;;5.80;61.42;100753.66;4943483;28;6781;-75
2024/01/07 05:53:40;;;;;;;;;;;;;;;5.78;61.54;100755.19;4941492;28;6975;-75
2024/01/07 05:56:06;;;;;;;;;;;;;;;5.79;61.32;100762.03;4934245;28;6974;-74
2024/01/07 05:58:32;;;;;;;;;;;;;;;5.78;61.03;100756.06;4944354;28;6776;-74
2024/01/07 06:00:58;;;;;;;;;;;;;;;5.77;61.10;100766.13;4963248;28;6796;-75
2024/01/07 06:03:23;;;;;;;;;;;;;;;5.77;61.14;100773.75;4941652;28;9965;-75
2024/01/07 06:05:49;;;;;;;;;;;;;;;5.77;61.07;100772.13;4965541;28;6839;-75
2024/01/07 06:08:15;;;;;;;;;;;;;;;5.79;60.77;100772.19;4940383;28;7159;-75
2024/01/07 06:10:41;;;;;;;;;;;;;;;5.77;60.94;100779.75;4941333;28;6941;-75
2024/01/07 06:13:06;;;;;;;;;;;;;;;5.77;60.76;100787.38;4917694;28;7015;-75
2024/01/07 06:15:32;;;;;;;;;;;;;;;5.76;61.18;100784.72;4939279;28;6776;-75
2024/01/07 06:17:58;;;;;;;;;;;;;;;5.76;61.28;100788.16;4922872;28;7120;-75
2024/01/07 06:20:24;;;;;;;;;;;;;;;5.76;61.17;100792.34;4945428;28;6800;-74
2024/01/07 06:22:50;;;;;;;;;;;;;;;5.75;61.17;100795.66;4953962;28;6840;-75
2024/01/07 06:25:15;;;;;;;;;;;;;;;5.76;61.30;100793.25;4940705;28;6789;-75
2024/01/07 06:27:41;;;;;;;;;;;;;;;5.76;61.17;100798.31;4942505;28;6919;-76
2024/01/07 06:30:07;;;;;;;;;;;;;;;5.76;61.33;100803.41;4956115;28;6804;-75
2024/01/07 06:32:33;;;;;;;;;;;;;;;5.77;61.35;100809.38;4940717;28;7356;-75
2024/01/07 06:34:59;;;;;;;;;;;;;;;5.78;61.36;100806.06;4938996;28;7149;-75
2024/01/07 06:37:25;;;;;;;;;;;;;;;5.78;60.99;100814.59;4937300;28;6859;-76
2024/01/07 06:39:51;;;;;;;;;;;;;;;5.80;60.84;100809.63;4937475;28;6955;-75
2024/01/07 06:42:17;;;;;;;;;;;;;;;5.79;60.91;100813.81;4938894;28;6955;-75
2024/01/07 06:44:43;;;;;;;;;;;;;;;5.80;60.87;100819.78;4939903;28;6960;-75
2024/01/07 06:47:08;;;;;;;;;;;;;;;5.77;60.97;100817.00;4940972;28;6756;-76
2024/01/07 06:49:34;;;;;;;;;;;;;;;5.74;60.53;100824.41;4937459;28;6997;-75
2024/01/07 06:52:00;;;;;;;;;;;;;;;5.70;60.67;100828.38;4940322;28;7493;-75
2024/01/07 06:54:25;;;;;;;;;;;;;;;5.65;60.21;100835.66;4925117;28;6963;-75
2024/01/07 06:56:51;;;;;;;;;;;;;;;5.62;60.77;100835.44;4956967;28;6945;-75
2024/01/07 06:59:16;;;;;;;;;;;;;;;5.58;60.75;100841.06;4936053;28;7598;-75
2024/01/07 07:01:42;;;;;;;;;;;;;;;5.58;60.86;100842.75;4935647;28;6788;-75
2024/01/07 07:04:08;;;;;;;;;;;;;;;5.56;60.57;100846.06;4950940;28;6942;-75
2024/01/07 07:06:34;;;;;;;;;;;;;;;5.55;60.68;100844.28;4932070;28;6924;-75
2024/01/07 07:09:00;;;;;;;;;;;;;;;5.53;60.56;100844.94;4910623;28;7134;-75
2024/01/07 07:11:26;;;;;;;;;;;;;;;5.51;60.88;100849.88;4947631;28;7073;-75
2024/01/07 07:13:52;;;;;;;;;;;;;;;5.51;61.02;100851.56;4951529;28;6856;-74
2024/01/07 07:16:17;;;;;;;;;;;;;;;5.50;60.89;100860.84;4929883;28;7937;-75
2024/01/07 07:18:43;;;;;;;;;;;;;;;5.49;61.13;100863.25;4944817;28;7143;-76
2024/01/07 07:21:08;;;;;;;;;;;;;;;5.51;60.81;100877.84;4928177;28;6916;-75
2024/01/07 07:23:34;;;;;;;;;;;;;;;5.49;60.85;100879.41;4925127;28;7295;-75
2024/01/07 07:25:59;;;;;;;;;;;;;;;5.51;60.98;100888.03;4926011;28;6925;-76
2024/01/07 07:28:25;;;;;;;;;;;;;;;5.51;60.92;100887.16;4940157;28;6969;-75
2024/01/07 07:30:53;;;;;;;;;;;;;;;5.52;60.79;100886.38;4926344;28;7181;-76
2024/01/07 07:33:18;;;;;;;;;;;;;;;5.50;60.91;100881.19;4928037;28;7119;-77
2024/01/07 07:35:44;;;;;;;;;;;;;;;5.51;60.69;100894.78;4929933;28;6773;-76
2024/01/07 07:38:10;;;;;;;;;;;;;;;5.51;61.13;100892.25;4923966;28;7383;-76
2024/01/07 07:40:35;;;;;;;;;;;;;;;5.49;60.45;100902.28;4926662;28;6764;-76
2024/01/07 07:43:01;;;;;;;;;;;;;;;5.50;61.03;100906.59;4927516;29;7158;-75
2024/01/07 07:45:27;;;;;;;;;;;;;;;5.52;61.27;100911.81;4943612;28;6970;-76
2024/01/07 07:47:52;;;;;;;;;;;;;;;5.51;61.13;100908.38;4916657;28;6963;-75
2024/01/07 07:50:18;;;;;;;;;;;;;;;5.52;60.83;100914.34;4918150;28;6940;-76
2024/01/07 07:52:43;;;;;;;;;;;;;;;5.53;60.76;100921.22;4906533;28;7244;-76
2024/01/07 07:55:10;;;;;;;;;;;;;;;5.52;60.93;100925.41;4932938;28;8458;-76
2024/01/07 07:57:37;;;;;;;;;;;;;;;5.52;60.92;100922.00;4942083;28;7730;-75
2024/01/07 08:00:07;;;;;;;;;;;;;;;5.51;60.73;100932.94;4925643;28;6948;-75
2024/01/07 08:02:33;;;;;;;;;;;;;;;5.52;60.78;100938.13;4944427;28;6796;-76
2024/01/07 08:04:58;;;;;;;;;;;;;;;5.52;60.39;100942.34;4926685;28;6956;-76
2024/01/07 08:07:25;;;;;;;;;;;;;;;5.52;60.69;100945.75;4928301;28;7187;-76
2024/01/07 08:09:51;;;;;;;;;;;;;;;5.52;60.42;100952.50;4909529;28;7184;-76
2024/01/07 08:12:16;;;;;;;;;;;;;;;5.51;60.46;100953.28;4925883;28;6781;-75
2024/01/07 08:14:42;;;;;;;;;;;;;;;5.52;60.27;100955.03;4942540;28;7127;-75
2024/01/07 08:17:08;;;;;;;;;;;;;;;5.51;60.48;100953.28;4912476;28;8206;-76
2024/01/07 08:19:34;;;;;;;;;;;;;;;5.50;60.23;100960.00;4926597;28;7123;-76
2024/01/07 08:21:59;;;;;;;;;;;;;;;5.50;60.76;100970.16;4928122;28;6769;-76
2024/01/07 08:24:25;;;;;;;;;;;;;;;5.49;60.45;100967.50;4927268;28;6832;-76
2024/01/07 08:26:51;;;;;;;;;;;;;;;5.47;60.44;100967.41;4922729;28;7165;-75
2024/01/07 08:29:17;;;;;;;;;;;;;;;5.45;60.27;100968.03;4932770;28;6808;-75
2024/01/07 08:31:43;;;;;;;;;;;;;;;5.44;59.93;100966.28;4918074;28;6942;-75
2024/01/07 08:34:09;;;;;;;;;;;;;;;5.41;60.12;100983.06;4932154;28;6844;-75
2024/01/07 08:36:34;;;;;;;;;;;;;;;5.39;60.59;100984.56;4931129;28;7450;-75
2024/01/07 08:39:00;;;;;;;;;;;;;;;5.40;60.53;100990.56;4908906;28;7115;-75
2024/01/07 08:41:26;;;;;;;;;;;;;;;5.41;60.35;100977.97;4949652;28;7197;-75
2024/01/07 08:43:51;;;;;;;;;;;;;;;5.41;60.41;100985.63;4928026;28;6820;-75
2024/01/07 08:46:17;;;;;;;;;;;;;;;5.43;60.31;100995.88;4918340;28;6951;-75
2024/01/07 08:48:42;;;;;;;;;;;;;;;5.40;60.73;100999.06;4930425;29;6812;-75
2024/01/07 08:51:08;;;;;;;;;;;;;;;5.42;60.24;100999.19;4930867;28;6768;-76
2024/01/07 08:53:34;;;;;;;;;;;;;;;5.40;60.04;100999.06;4928235;29;6956;-75
2024/01/07 08:55:59;;;;;;;;;;;;;;;5.38;60.58;100994.66;4933263;29;7174;-75
2024/01/07 08:58:25;;;;;;;;;;;;;;;5.38;60.17;100999.72;4910706;28;6949;-75
2024/01/07 09:00:51;;;;;;;;;;;;;;;5.36;60.41;100998.69;4931622;28;7213;-75
2024/01/07 09:03:17;;;;;;;;;;;;;;;5.36;60.33;101003.78;4932169;28;6989;-75
2024/01/07 09:05:43;;;;;;;;;;;;;;;5.32;59.88;101004.31;4934193;29;7346;-75
2024/01/07 09:08:11;;;;;;;;;;;;;;;5.30;60.06;101003.31;4929726;28;9558;-75
2024/01/07 09:10:36;;;;;;;;;;;;;;;5.28;60.11;101010.81;4927968;29;6809;-75
2024/01/07 09:13:03;;;;;;;;;;;;;;;5.28;60.54;101010.81;4931678;28;6788;-75
2024/01/07 09:15:29;;;;;;;;;;;;;;;5.25;60.30;101015.66;4928364;28;6982;-75
2024/01/07 09:17:55;;;;;;;;;;;;;;;5.22;59.77;101010.34;4950643;28;6939;-75
2024/01/07 09:20:20;;;;;;;;;;;;;;;5.18;60.42;101019.38;4949342;28;6956;-75
2024/01/07 09:22:46;;;;;;;;;;;;;;;5.16;59.73;101030.19;4927318;28;6773;-75
2024/01/07 09:25:11;;;;;;;;;;;;;;;5.14;59.96;101032.59;4929776;28;6951;-75
2024/01/07 09:27:37;;;;;;;;;;;;;;;5.11;60.01;101032.34;4931666;28;9528;-75
2024/01/07 09:30:03;;;;;;;;;;;;;;;5.09;59.90;101033.91;4935263;28;6776;-75
2024/01/07 09:32:29;;;;;;;;;;;;;;;5.06;59.78;101039.59;4933163;28;6876;-76
2024/01/07 09:34:54;;;;;;;;;;;;;;;5.03;60.29;101043.56;4935141;28;6780;-74
2024/01/07 09:37:20;;;;;;;;;;;;;;;5.00;60.42;101040.00;4933013;28;6769;-77
2024/01/07 09:39:46;;;;;;;;;;;;;;;4.98;60.28;101045.72;4928854;28;6971;-76
2024/01/07 09:42:14;;;;;;;;;;;;;;;4.97;60.17;101051.56;4947560;28;7107;-75
2024/01/07 09:44:41;;;;;;;;;;;;;;;4.96;60.08;101042.19;4927102;28;7440;-75
2024/01/07 09:47:12;;;;;;;;;;;;;;;4.95;59.98;101045.47;4931521;28;7609;-75
2024/01/07 09:49:42;;;;;;;;;;;;;;;4.95;60.04;101050.56;4933123;28;6999;-75
2024/01/07 09:52:10;;;;;;;;;;;;;;;4.93;60.54;101055.50;4927718;28;7297;-76
2024/01/07 09:54:40;;;;;;;;;;;;;;;4.94;60.40;101061.50;4920511;28;7813;-75
2024/01/07 09:57:07;;;;;;;;;;;;;;;4.95;60.64;101068.34;4932445;28;6793;-75
2024/01/07 09:59:35;;;;;;;;;;;;;;;4.98;60.35;101064.41;4932688;28;7023;-75
2024/01/07 10:02:03;;;;;;;;;;;;;;;5.00;60.57;101059.44;4914771;28;6943;-75
2024/01/07 10:04:30;;;;;;;;;;;;;;;5.03;60.87;101062.25;4932550;28;6855;-75
2024/01/07 10:06:56;;;;;;;;;;;;;;;5.05;60.41;101073.41;4914561;29;6983;-75
2024/01/07 10:09:29;;;;;;;;;;;;;;;5.08;60.38;101072.78;4935789;28;6776;-75
2024/01/07 10:11:55;;;;;;;;;;;;;;;5.09;60.27;101065.25;4926933;28;7205;-75
2024/01/07 10:14:25;;;;;;;;;;;;;;;5.12;60.27;101070.59;4929535;28;6760;-75
2024/01/07 10:16:52;;;;;;;;;;;;;;;5.13;60.37;101076.56;4932613;28;6820;-74
2024/01/07 10:19:24;;;;;;;;;;;;;;;5.13;60.09;101077.47;4925361;28;6967;-75
2024/01/07 10:22:01;;;;;;;;;;;;;;;5.14;60.27;101079.25;4931019;28;7269;-74
2024/01/07 10:24:39;;;;;;;;;;;;;;;5.12;59.55;101079.88;4933866;28;6959;-75
2024/01/07 10:27:07;;;;;;;;;;;;;;;5.10;59.84;101086.50;4936707;28;7273;-74
2024/01/07 10:29:33;;;;;;;;;;;;;;;5.08;59.54;101082.94;4930822;28;7042;-77
2024/01/07 10:32:07;;;;;;;;;;;;;;;5.05;59.55;101091.19;4932000;28;7046;-77
2024/01/07 10:34:36;;;;;;;;;;;;;;;5.05;59.70;101087.75;4950329;28;6983;-75
2024/01/07 10:37:08;;;;;;;;;;;;;;;5.02;59.41;101092.59;4915203;28;6985;-75
2024/01/07 10:39:34;;;;;;;;;;;;;;;4.99;59.68;101089.06;4938351;28;7274;-75
2024/01/07 10:42:00;;;;;;;;;;;;;;;4.98;59.71;101096.53;4936581;28;7100;-75
2024/01/07 10:44:27;;;;;;;;;;;;;;;4.99;59.65;101098.31;4952870;28;6955;-75
2024/01/07 10:46:55;;;;;;;;;;;;;;;5.00;59.67;101097.53;4930995;28;6974;-75
2024/01/07 10:49:25;;;;;;;;;;;;;;;5.00;59.15;101100.97;4929745;28;7104;-75
2024/01/07 10:52:04;;;;;;;;;;;;;;;5.02;59.44;101097.69;4947932;28;7223;-75
2024/01/07 10:54:31;;;;;;;;;;;;;;;5.03;59.40;101104.53;4931032;28;7274;-76
2024/01/07 10:57:09;;;;;;;;;;;;;;;5.03;58.89;101099.44;4922842;28;8008;-75
2024/01/07 10:59:37;;;;;;;;;;;;;;;5.04;59.22;101096.13;4932599;28;6789;-76
2024/01/07 11:02:03;;;;;;;;;;;;;;;5.05;59.40;101100.47;4931208;28;6984;-76
2024/01/07 11:05:12;;;;;;;;;;;;;;;5.09;59.15;101102.50;4931690;28;6792;-76
2024/01/07 11:07:46;;;;;;;;;;;;;;;5.10;59.12;101102.59;4946578;28;8302;-75
2024/01/07 11:10:25;;;;;;;;;;;;;;;5.11;58.59;101104.38;4930987;28;7248;-76
2024/01/07 11:12:55;;;;;;;;;;;;;;;5.10;58.45;101107.69;4908898;28;7012;-76
2024/01/07 11:15:48;;;;;;;;;;;;;;;5.09;58.70;101103.38;4924878;28;6793;-76
2024/01/07 11:18:18;;;;;;;;;;;;;;;5.06;58.45;101108.22;4947719;28;6808;-77
2024/01/07 11:20:46;;;;;;;;;;;;;;;5.07;57.95;101112.53;4945746;28;7396;-77
2024/01/07 11:23:39;;;;;;;;;;;;;;;5.07;58.02;101110.00;4927555;28;6796;-76
2024/01/07 11:26:06;;;;;;;;;;;;;;;5.05;58.46;101113.16;4931897;28;7442;-77
2024/01/07 11:28:57;;;;;;;;;;;;;;;5.05;58.36;101116.59;4925835;28;6884;-78
2024/01/07 11:31:41;;;;;;;;;;;;;;;5.04;58.33;101117.38;4947823;28;7996;-79
2024/01/07 11:34:08;;;;;;;;;;;;;;;5.04;58.29;101112.28;4948150;28;7296;-78
2024/01/07 11:36:38;;;;;;;;;;;;;;;5.07;58.03;101124.34;4930376;28;6793;-77
2024/01/07 11:39:08;;;;;;;;;;;;;;;5.07;58.15;101117.63;4929512;28;7651;-78
2024/01/07 11:41:35;;;;;;;;;;;;;;;5.10;58.13;101125.47;4927188;28;6979;-78
2024/01/07 11:44:02;;;;;;;;;;;;;;;5.10;58.09;101122.06;4924124;28;6977;-78
2024/01/07 11:46:32;;;;;;;;;;;;;;;5.09;58.06;101121.16;4945159;28;7003;-77
2024/01/07 11:48:59;;;;;;;;;;;;;;;5.09;58.15;101126.25;4930079;28;6968;-77
2024/01/07 11:51:27;;;;;;;;;;;;;;;5.07;58.05;101126.88;4917418;28;6977;-77
2024/01/07 11:53:54;;;;;;;;;;;;;;;5.06;57.51;101127.63;4930581;28;7138;-78
2024/01/07 11:56:20;;;;;;;;;;;;;;;5.06;57.86;101117.47;4929777;28;6875;-76
2024/01/07 11:58:46;;;;;;;;;;;;;;;5.07;57.54;101132.84;4968997;28;6967;-76
2024/01/07 12:01:14;;;;;;;;;;;;;;;5.07;57.46;101132.84;4952169;28;6888;-76
2024/01/07 12:03:41;;;;;;;;;;;;;;;5.06;57.85;101131.09;4953486;28;7243;-77
2024/01/07 12:06:13;;;;;;;;;;;;;;;5.04;57.69;101127.53;4968616;23;7055;-85
2024/01/07 12:08:59;;;;;;;;;;;;;;;5.05;57.49;101129.31;4936308;28;6788;-84
2024/01/07 12:11:25;;;;;;;;;;;;;;;5.05;57.30;101134.41;4945943;28;6955;-85
2024/01/07 12:13:52;;;;;;;;;;;;;;;5.09;57.62;101130.47;4938161;28;6947;-85
2024/01/07 12:16:21;;;;;;;;;;;;;;;5.09;57.56;101130.47;4944386;28;6817;-84
2024/01/07 12:18:49;;;;;;;;;;;;;;;5.06;57.34;101136.16;4934934;28;6826;-84
2024/01/07 12:21:40;;;;;;;;;;;;;;;5.06;57.34;101131.09;5007485;23;6950;-84
2024/01/07 12:24:10;;;;;;;;;;;;;;;5.05;57.09;101126.78;4946554;28;6940;-84
2024/01/07 12:26:39;;;;;;;;;;;;;;;5.05;57.02;101125.88;4979771;28;6841;-84
2024/01/07 12:29:07;;;;;;;;;;;;;;;5.06;57.14;101128.53;4966098;28;6851;-85
2024/01/07 12:32:04;;;;;;;;;;;;;;;5.07;56.89;101126.88;4978423;28;6956;-85
2024/01/07 12:35:07;;;;;;;;;;;;;;;5.05;56.98;101129.31;4995271;28;6745;-84
2024/01/07 12:40:10;;;;;;;;;;;;;;;5.00;56.77;101140.72;4149389;23;7034;-74
2024/01/07 12:42:44;;;;;;;;;;;;;;;4.97;56.78;101141.41;5003565;28;7014;-75
2024/01/07 12:45:13;;;;;;;;;;;;;;;4.97;57.02;101150.66;4992382;28;8844;-75
2024/01/07 12:47:42;;;;;;;;;;;;;;;4.97;56.72;101148.13;5005797;28;6792;-76
2024/01/07 12:50:11;;;;;;;;;;;;;;;4.95;56.92;101158.13;4995942;28;6962;-76
2024/01/07 12:52:39;;;;;;;;;;;;;;;4.95;56.41;101162.34;4990330;28;7122;-74
2024/01/07 12:55:06;;;;;;;;;;;;;;;4.93;56.45;101158.81;5009392;28;6804;-75
2024/01/07 12:57:33;;;;;;;;;;;;;;;4.95;56.68;101164.88;4985817;28;6947;-75
2024/01/07 12:59:59;;;;;;;;;;;;;;;4.97;56.61;101163.34;5005581;28;7094;-76